sensor_id;sensor_type;location;lat;lon;timestamp;pressure;altitude;pressure_sealevel;temperature;humidity
42727;BME280;28372;56.832;60.658;2023-03-16T00:01:11;98414.22;;;4.50;43.72
42727;BME280;28372;56.832;60.658;2023-03-16T00:03:38;98416.44;;;4.48;43.76
42727;BME280;28372;56.832;60.658;2023-03-16T00:06:06;98409.19;;;4.39;44.34
42727;BME280;28372;56.832;60.658;2023-03-16T00:08:33;98410.59;;;4.45;43.90
42727;BME280;28372;56.832;60.658;2023-03-16T00:11:01;98415.31;;;4.49;43.66
42727;BME280;28372;56.832;60.658;2023-03-16T00:13:29;98415.94;;;4.45;43.68
42727;BME280;28372;56.832;60.658;2023-03-16T00:15:57;98407.13;;;4.45;43.76
42727;BME280;28372;56.832;60.658;2023-03-16T00:18:25;98412.00;;;4.43;43.89
42727;BME280;28372;56.832;60.658;2023-03-16T00:20:54;98409.81;;;4.45;43.61
42727;BME280;28372;56.832;60.658;2023-03-16T00:23:22;98412.81;;;4.43;43.47
42727;BME280;28372;56.832;60.658;2023-03-16T00:25:54;98411.38;;;4.37;43.80
42727;BME280;28372;56.832;60.658;2023-03-16T00:28:22;98403.78;;;4.31;44.39
42727;BME280;28372;56.832;60.658;2023-03-16T00:30:49;98404.59;;;4.31;43.75
42727;BME280;28372;56.832;60.658;2023-03-16T00:33:16;98399.25;;;4.40;43.35
42727;BME280;28372;56.832;60.658;2023-03-16T00:35:46;98401.13;;;4.39;43.66
42727;BME280;28372;56.832;60.658;2023-03-16T00:38:16;98383.81;;;4.37;43.58
42727;BME280;28372;56.832;60.658;2023-03-16T00:40:45;98390.56;;;4.43;43.42
42727;BME280;28372;56.832;60.658;2023-03-16T00:43:12;98391.69;;;4.42;43.52
42727;BME280;28372;56.832;60.658;2023-03-16T00:45:44;98382.22;;;4.44;43.34
42727;BME280;28372;56.832;60.658;2023-03-16T00:48:12;98394.69;;;4.49;43.18
42727;BME280;28372;56.832;60.658;2023-03-16T00:50:39;98388.84;;;4.47;43.44
42727;BME280;28372;56.832;60.658;2023-03-16T00:53:09;98393.25;;;4.43;43.84
42727;BME280;28372;56.832;60.658;2023-03-16T00:55:36;98397.06;;;4.42;43.58
42727;BME280;28372;56.832;60.658;2023-03-16T00:58:04;98394.84;;;4.44;44.00
42727;BME280;28372;56.832;60.658;2023-03-16T01:00:31;98400.50;;;4.51;43.09
42727;BME280;28372;56.832;60.658;2023-03-16T01:03:01;98396.88;;;4.47;43.70
42727;BME280;28372;56.832;60.658;2023-03-16T01:05:29;98401.59;;;4.50;43.74
42727;BME280;28372;56.832;60.658;2023-03-16T01:07:56;98404.28;;;4.50;43.39
42727;BME280;28372;56.832;60.658;2023-03-16T01:10:23;98412.31;;;4.50;43.69
42727;BME280;28372;56.832;60.658;2023-03-16T01:12:51;98403.97;;;4.52;43.67
42727;BME280;28372;56.832;60.658;2023-03-16T01:15:22;98402.72;;;4.49;43.70
42727;BME280;28372;56.832;60.658;2023-03-16T01:17:49;98395.63;;;4.53;43.39
42727;BME280;28372;56.832;60.658;2023-03-16T01:20:17;98395.75;;;4.57;43.14
42727;BME280;28372;56.832;60.658;2023-03-16T01:22:45;98399.06;;;4.62;43.19
42727;BME280;28372;56.832;60.658;2023-03-16T01:25:12;98405.56;;;4.61;43.17
42727;BME280;28372;56.832;60.658;2023-03-16T01:27:40;98392.78;;;4.50;43.71
42727;BME280;28372;56.832;60.658;2023-03-16T01:30:09;98389.47;;;4.53;43.95
42727;BME280;28372;56.832;60.658;2023-03-16T01:32:38;98391.06;;;4.45;44.09
42727;BME280;28372;56.832;60.658;2023-03-16T01:35:07;98391.38;;;4.43;44.22
42727;BME280;28372;56.832;60.658;2023-03-16T01:37:35;98400.50;;;4.51;43.67
42727;BME280;28372;56.832;60.658;2023-03-16T01:40:12;98404.44;;;4.54;43.36
42727;BME280;28372;56.832;60.658;2023-03-16T01:42:44;98408.84;;;4.23;44.51
42727;BME280;28372;56.832;60.658;2023-03-16T01:47:59;98410.75;;;4.49;43.36
42727;BME280;28372;56.832;60.658;2023-03-16T01:50:26;98407.59;;;4.47;43.53
42727;BME280;28372;56.832;60.658;2023-03-16T01:52:54;98407.91;;;4.45;43.51
42727;BME280;28372;56.832;60.658;2023-03-16T01:55:22;98420.97;;;4.29;44.48
42727;BME280;28372;56.832;60.658;2023-03-16T01:57:50;98422.09;;;4.28;44.16
42727;BME280;28372;56.832;60.658;2023-03-16T02:00:18;98415.16;;;4.36;43.64
42727;BME280;28372;56.832;60.658;2023-03-16T02:03:10;98426.47;;;4.24;44.23
42727;BME280;28372;56.832;60.658;2023-03-16T02:06:18;98435.47;;;4.28;44.15
42727;BME280;28372;56.832;60.658;2023-03-16T02:08:43;98440.69;;;4.34;43.82
42727;BME280;28372;56.832;60.658;2023-03-16T02:11:13;98438.47;;;4.36;43.82
42727;BME280;28372;56.832;60.658;2023-03-16T02:14:07;98447.75;;;4.38;43.77
42727;BME280;28372;56.832;60.658;2023-03-16T02:16:35;98449.97;;;4.36;44.08
42727;BME280;28372;56.832;60.658;2023-03-16T02:19:03;98450.28;;;4.35;44.02
42727;BME280;28372;56.832;60.658;2023-03-16T02:21:34;98452.66;;;4.36;44.67
42727;BME280;28372;56.832;60.658;2023-03-16T02:24:06;98458.63;;;4.33;44.61
42727;BME280;28372;56.832;60.658;2023-03-16T02:31:49;98470.13;;;4.42;44.27
42727;BME280;28372;56.832;60.658;2023-03-16T02:34:18;98470.78;;;4.48;44.00
42727;BME280;28372;56.832;60.658;2023-03-16T02:36:52;98475.50;;;4.51;44.35
42727;BME280;28372;56.832;60.658;2023-03-16T02:51:46;98478.94;;;5.30;44.90
42727;BME280;28372;56.832;60.658;2023-03-16T02:55:16;98476.94;;;5.57;43.75
42727;BME280;28372;56.832;60.658;2023-03-16T02:57:56;98483.50;;;5.77;42.92
42727;BME280;28372;56.832;60.658;2023-03-16T03:01:15;98491.66;;;5.98;42.74
42727;BME280;28372;56.832;60.658;2023-03-16T03:04:02;98490.53;;;5.99;41.52
42727;BME280;28372;56.832;60.658;2023-03-16T03:06:39;98483.38;;;6.12;41.53
42727;BME280;28372;56.832;60.658;2023-03-16T03:09:48;98486.81;;;6.22;41.88
42727;BME280;28372;56.832;60.658;2023-03-16T03:16:23;98476.78;;;6.31;40.86
42727;BME280;28372;56.832;60.658;2023-03-16T03:18:52;98485.91;;;6.39;41.03
42727;BME280;28372;56.832;60.658;2023-03-16T03:21:20;98483.16;;;6.47;41.29
42727;BME280;28372;56.832;60.658;2023-03-16T03:23:48;98486.44;;;6.53;41.18
42727;BME280;28372;56.832;60.658;2023-03-16T03:26:15;98487.84;;;6.59;41.88
42727;BME280;28372;56.832;60.658;2023-03-16T03:28:50;98495.31;;;6.75;40.18
42727;BME280;28372;56.832;60.658;2023-03-16T03:31:37;98484.25;;;6.89;40.53
42727;BME280;28372;56.832;60.658;2023-03-16T03:34:05;98503.03;;;6.97;39.93
42727;BME280;28372;56.832;60.658;2023-03-16T03:36:34;98500.91;;;7.03;39.39
42727;BME280;28372;56.832;60.658;2023-03-16T03:39:04;98509.56;;;7.09;39.31
42727;BME280;28372;56.832;60.658;2023-03-16T03:41:33;98512.63;;;7.19;42.20
42727;BME280;28372;56.832;60.658;2023-03-16T03:44:03;98520.66;;;7.41;45.44
42727;BME280;28372;56.832;60.658;2023-03-16T03:46:32;98520.75;;;7.78;43.96
42727;BME280;28372;56.832;60.658;2023-03-16T03:49:00;98523.34;;;8.23;41.52
42727;BME280;28372;56.832;60.658;2023-03-16T03:51:32;98528.47;;;8.78;41.72
42727;BME280;28372;56.832;60.658;2023-03-16T03:54:04;98519.47;;;9.43;39.42
42727;BME280;28372;56.832;60.658;2023-03-16T03:56:52;98531.00;;;10.20;37.20
42727;BME280;28372;56.832;60.658;2023-03-16T03:59:20;98529.25;;;10.79;34.99
42727;BME280;28372;56.832;60.658;2023-03-16T04:02:03;98538.56;;;11.40;36.00
42727;BME280;28372;56.832;60.658;2023-03-16T04:04:52;98538.81;;;11.97;34.92
42727;BME280;28372;56.832;60.658;2023-03-16T04:07:19;98536.75;;;12.64;31.28
42727;BME280;28372;56.832;60.658;2023-03-16T04:09:49;98533.09;;;13.13;29.34
42727;BME280;28372;56.832;60.658;2023-03-16T04:12:38;98525.69;;;13.44;29.06
42727;BME280;28372;56.832;60.658;2023-03-16T04:15:09;98527.94;;;13.76;28.86
42727;BME280;28372;56.832;60.658;2023-03-16T04:17:56;98535.19;;;14.06;30.55
42727;BME280;28372;56.832;60.658;2023-03-16T04:20:24;98538.63;;;14.51;29.65
42727;BME280;28372;56.832;60.658;2023-03-16T04:22:52;98542.16;;;15.29;28.11
42727;BME280;28372;56.832;60.658;2023-03-16T04:25:24;98536.41;;;15.74;28.14
42727;BME280;28372;56.832;60.658;2023-03-16T04:27:52;98533.72;;;16.32;25.91
42727;BME280;28372;56.832;60.658;2023-03-16T04:30:24;98528.16;;;16.68;27.29
42727;BME280;28372;56.832;60.658;2023-03-16T04:32:59;98530.38;;;17.12;26.59
42727;BME280;28372;56.832;60.658;2023-03-16T04:35:27;98521.97;;;17.56;26.29
42727;BME280;28372;56.832;60.658;2023-03-16T04:37:56;98534.53;;;18.06;25.03
42727;BME280;28372;56.832;60.658;2023-03-16T04:40:33;98523.47;;;18.62;24.44
42727;BME280;28372;56.832;60.658;2023-03-16T04:43:07;98530.84;;;19.03;24.18
42727;BME280;28372;56.832;60.658;2023-03-16T04:45:35;98537.69;;;19.49;23.06
42727;BME280;28372;56.832;60.658;2023-03-16T04:48:03;98537.94;;;20.13;21.95
42727;BME280;28372;56.832;60.658;2023-03-16T04:50:31;98539.81;;;20.64;20.99
42727;BME280;28372;56.832;60.658;2023-03-16T04:52:59;98538.84;;;20.94;21.49
42727;BME280;28372;56.832;60.658;2023-03-16T04:55:27;98523.38;;;21.41;20.11
42727;BME280;28372;56.832;60.658;2023-03-16T04:57:55;98534.13;;;21.88;19.71
42727;BME280;28372;56.832;60.658;2023-03-16T05:00:23;98533.25;;;22.07;19.79
42727;BME280;28372;56.832;60.658;2023-03-16T05:03:00;98532.31;;;22.47;18.91
42727;BME280;28372;56.832;60.658;2023-03-16T05:05:29;98541.19;;;22.68;18.94
42727;BME280;28372;56.832;60.658;2023-03-16T05:07:57;98540.66;;;23.02;18.44
42727;BME280;28372;56.832;60.658;2023-03-16T05:10:26;98547.81;;;23.29;18.42
42727;BME280;28372;56.832;60.658;2023-03-16T05:12:56;98543.63;;;23.63;17.28
42727;BME280;28372;56.832;60.658;2023-03-16T05:15:23;98546.59;;;23.82;18.11
42727;BME280;28372;56.832;60.658;2023-03-16T05:17:57;98555.22;;;24.09;17.70
42727;BME280;28372;56.832;60.658;2023-03-16T05:20:25;98567.22;;;24.41;17.06
42727;BME280;28372;56.832;60.658;2023-03-16T05:22:57;98556.47;;;24.78;16.60
42727;BME280;28372;56.832;60.658;2023-03-16T05:25:28;98569.75;;;25.06;16.27
42727;BME280;28372;56.832;60.658;2023-03-16T05:27:59;98574.19;;;25.25;16.68
42727;BME280;28372;56.832;60.658;2023-03-16T05:30:32;98568.38;;;25.55;16.09
42727;BME280;28372;56.832;60.658;2023-03-16T05:33:03;98572.47;;;25.81;15.89
42727;BME280;28372;56.832;60.658;2023-03-16T05:35:31;98563.03;;;26.10;15.95
42727;BME280;28372;56.832;60.658;2023-03-16T05:38:04;98561.03;;;26.20;16.53
42727;BME280;28372;56.832;60.658;2023-03-16T05:40:34;98561.88;;;26.48;15.28
42727;BME280;28372;56.832;60.658;2023-03-16T05:43:23;98569.44;;;26.85;15.01
42727;BME280;28372;56.832;60.658;2023-03-16T05:45:53;98567.25;;;27.08;14.38
42727;BME280;28372;56.832;60.658;2023-03-16T05:48:21;98577.09;;;27.27;14.28
42727;BME280;28372;56.832;60.658;2023-03-16T05:50:55;98577.19;;;27.61;14.49
42727;BME280;28372;56.832;60.658;2023-03-16T05:53:26;98578.06;;;27.76;14.37
42727;BME280;28372;56.832;60.658;2023-03-16T05:56:02;98583.31;;;27.98;13.88
42727;BME280;28372;56.832;60.658;2023-03-16T05:58:32;98588.28;;;28.03;15.63
42727;BME280;28372;56.832;60.658;2023-03-16T06:01:04;98584.78;;;28.18;14.10
42727;BME280;28372;56.832;60.658;2023-03-16T06:03:32;98586.81;;;28.42;13.30
42727;BME280;28372;56.832;60.658;2023-03-16T06:06:00;98581.72;;;28.64;13.32
42727;BME280;28372;56.832;60.658;2023-03-16T06:08:37;98577.25;;;28.82;13.28
42727;BME280;28372;56.832;60.658;2023-03-16T06:11:08;98585.66;;;28.97;13.12
42727;BME280;28372;56.832;60.658;2023-03-16T06:13:37;98587.41;;;29.24;12.84
42727;BME280;28372;56.832;60.658;2023-03-16T06:16:04;98587.50;;;29.30;12.71
42727;BME280;28372;56.832;60.658;2023-03-16T06:18:34;98578.56;;;29.41;12.53
42727;BME280;28372;56.832;60.658;2023-03-16T06:21:01;98583.66;;;29.57;12.46
42727;BME280;28372;56.832;60.658;2023-03-16T06:23:32;98586.72;;;29.59;12.69
42727;BME280;28372;56.832;60.658;2023-03-16T06:26:01;98577.06;;;29.75;12.20
42727;BME280;28372;56.832;60.658;2023-03-16T06:28:30;98588.41;;;29.86;11.92
42727;BME280;28372;56.832;60.658;2023-03-16T06:30:58;98585.13;;;30.03;12.21
42727;BME280;28372;56.832;60.658;2023-03-16T06:33:30;98590.78;;;30.08;11.90
42727;BME280;28372;56.832;60.658;2023-03-16T06:35:57;98588.06;;;30.14;12.24
42727;BME280;28372;56.832;60.658;2023-03-16T06:38:41;98598.81;;;30.42;11.53
42727;BME280;28372;56.832;60.658;2023-03-16T06:41:24;98602.50;;;30.48;11.24
42727;BME280;28372;56.832;60.658;2023-03-16T06:43:51;98607.03;;;30.46;11.88
42727;BME280;28372;56.832;60.658;2023-03-16T06:46:18;98600.28;;;30.79;11.03
42727;BME280;28372;56.832;60.658;2023-03-16T06:48:46;98593.13;;;31.19;10.50
42727;BME280;28372;56.832;60.658;2023-03-16T06:51:14;98594.88;;;31.16;10.82
42727;BME280;28372;56.832;60.658;2023-03-16T06:53:44;98592.53;;;31.09;10.69
42727;BME280;28372;56.832;60.658;2023-03-16T06:56:12;98588.19;;;31.08;11.38
42727;BME280;28372;56.832;60.658;2023-03-16T06:58:42;98585.44;;;31.14;10.68
42727;BME280;28372;56.832;60.658;2023-03-16T07:01:09;98592.84;;;31.17;11.00
42727;BME280;28372;56.832;60.658;2023-03-16T07:03:38;98584.25;;;31.20;10.92
42727;BME280;28372;56.832;60.658;2023-03-16T07:06:32;98592.00;;;31.37;10.86
42727;BME280;28372;56.832;60.658;2023-03-16T07:08:59;98595.63;;;31.43;10.54
42727;BME280;28372;56.832;60.658;2023-03-16T07:11:29;98588.47;;;31.42;10.62
42727;BME280;28372;56.832;60.658;2023-03-16T07:13:57;98600.75;;;31.50;10.26
42727;BME280;28372;56.832;60.658;2023-03-16T07:16:26;98590.91;;;31.55;10.07
42727;BME280;28372;56.832;60.658;2023-03-16T07:18:56;98595.31;;;31.67;9.95
42727;BME280;28372;56.832;60.658;2023-03-16T07:21:24;98599.69;;;31.74;9.84
42727;BME280;28372;56.832;60.658;2023-03-16T07:23:51;98604.31;;;31.83;9.83
42727;BME280;28372;56.832;60.658;2023-03-16T07:26:23;98606.19;;;31.91;9.88
42727;BME280;28372;56.832;60.658;2023-03-16T07:28:54;98608.91;;;31.80;9.81
42727;BME280;28372;56.832;60.658;2023-03-16T07:31:24;98605.53;;;31.70;9.84
42727;BME280;28372;56.832;60.658;2023-03-16T07:33:53;98613.72;;;31.53;9.70
42727;BME280;28372;56.832;60.658;2023-03-16T07:36:30;98607.94;;;31.31;9.95
42727;BME280;28372;56.832;60.658;2023-03-16T07:38:59;98615.06;;;31.05;9.90
42727;BME280;28372;56.832;60.658;2023-03-16T07:41:28;98617.03;;;30.79;10.05
42727;BME280;28372;56.832;60.658;2023-03-16T07:44:12;98616.75;;;30.35;9.97
42727;BME280;28372;56.832;60.658;2023-03-16T07:46:43;98619.78;;;30.17;10.22
42727;BME280;28372;56.832;60.658;2023-03-16T07:49:11;98612.06;;;29.76;9.76
42727;BME280;28372;56.832;60.658;2023-03-16T07:51:39;98608.25;;;29.44;10.19
42727;BME280;28372;56.832;60.658;2023-03-16T07:54:12;98593.03;;;29.15;10.34
42727;BME280;28372;56.832;60.658;2023-03-16T07:56:40;98594.44;;;28.80;10.81
42727;BME280;28372;56.832;60.658;2023-03-16T07:59:25;98593.16;;;28.42;10.73
42727;BME280;28372;56.832;60.658;2023-03-16T08:01:53;98596.06;;;27.90;11.00
42727;BME280;28372;56.832;60.658;2023-03-16T08:04:20;98586.94;;;27.47;11.19
42727;BME280;28372;56.832;60.658;2023-03-16T08:06:50;98591.78;;;27.18;11.08
42727;BME280;28372;56.832;60.658;2023-03-16T08:09:35;98592.41;;;26.95;11.33
42727;BME280;28372;56.832;60.658;2023-03-16T08:12:06;98594.56;;;26.81;11.13
42727;BME280;28372;56.832;60.658;2023-03-16T08:14:35;98590.81;;;26.38;11.24
42727;BME280;28372;56.832;60.658;2023-03-16T08:17:10;98597.22;;;26.07;11.59
42727;BME280;28372;56.832;60.658;2023-03-16T08:19:38;98592.38;;;25.58;11.46
42727;BME280;28372;56.832;60.658;2023-03-16T08:22:08;98590.72;;;25.38;12.04
42727;BME280;28372;56.832;60.658;2023-03-16T08:24:39;98588.47;;;25.02;11.70
42727;BME280;28372;56.832;60.658;2023-03-16T08:27:10;98590.78;;;24.33;12.14
42727;BME280;28372;56.832;60.658;2023-03-16T08:29:41;98587.69;;;24.18;12.68
42727;BME280;28372;56.832;60.658;2023-03-16T08:32:13;98589.25;;;23.81;12.72
42727;BME280;28372;56.832;60.658;2023-03-16T08:34:42;98580.63;;;23.53;13.01
42727;BME280;28372;56.832;60.658;2023-03-16T08:37:10;98578.81;;;23.20;12.86
42727;BME280;28372;56.832;60.658;2023-03-16T08:39:39;98574.81;;;22.92;13.34
42727;BME280;28372;56.832;60.658;2023-03-16T08:42:10;98574.41;;;22.64;13.29
42727;BME280;28372;56.832;60.658;2023-03-16T08:44:48;98577.94;;;22.15;13.49
42727;BME280;28372;56.832;60.658;2023-03-16T08:47:16;98575.34;;;21.92;13.77
42727;BME280;28372;56.832;60.658;2023-03-16T08:49:45;98566.47;;;21.67;14.02
42727;BME280;28372;56.832;60.658;2023-03-16T08:52:14;98577.00;;;21.32;14.07
42727;BME280;28372;56.832;60.658;2023-03-16T08:54:42;98572.38;;;21.09;14.08
42727;BME280;28372;56.832;60.658;2023-03-16T08:57:28;98567.34;;;20.60;14.09
42727;BME280;28372;56.832;60.658;2023-03-16T08:59:55;98562.97;;;20.43;14.53
42727;BME280;28372;56.832;60.658;2023-03-16T09:02:23;98563.69;;;20.23;14.61
42727;BME280;28372;56.832;60.658;2023-03-16T09:04:51;98557.97;;;19.87;14.78
42727;BME280;28372;56.832;60.658;2023-03-16T09:07:18;98555.88;;;19.67;15.28
42727;BME280;28372;56.832;60.658;2023-03-16T09:09:46;98559.63;;;19.49;15.24
42727;BME280;28372;56.832;60.658;2023-03-16T09:12:13;98558.38;;;19.27;15.83
42727;BME280;28372;56.832;60.658;2023-03-16T09:14:41;98561.00;;;19.03;15.65
42727;BME280;28372;56.832;60.658;2023-03-16T09:17:08;98579.53;;;18.92;16.16
42727;BME280;28372;56.832;60.658;2023-03-16T09:19:37;98572.22;;;18.78;16.23
42727;BME280;28372;56.832;60.658;2023-03-16T09:22:25;98570.38;;;18.67;16.15
42727;BME280;28372;56.832;60.658;2023-03-16T09:24:52;98580.25;;;18.58;16.35
42727;BME280;28372;56.832;60.658;2023-03-16T09:27:19;98572.97;;;18.40;16.52
42727;BME280;28372;56.832;60.658;2023-03-16T09:29:48;98583.22;;;18.29;17.01
42727;BME280;28372;56.832;60.658;2023-03-16T09:32:17;98588.47;;;18.12;16.84
42727;BME280;28372;56.832;60.658;2023-03-16T09:34:44;98592.09;;;17.98;17.22
42727;BME280;28372;56.832;60.658;2023-03-16T09:37:11;98579.56;;;17.97;17.73
42727;BME280;28372;56.832;60.658;2023-03-16T09:39:39;98578.88;;;17.79;17.41
42727;BME280;28372;56.832;60.658;2023-03-16T09:42:14;98583.25;;;17.66;17.56
42727;BME280;28372;56.832;60.658;2023-03-16T09:47:12;98582.94;;;17.49;17.97
42727;BME280;28372;56.832;60.658;2023-03-16T09:49:43;98582.56;;;17.43;17.81
42727;BME280;28372;56.832;60.658;2023-03-16T09:54:58;98585.41;;;17.22;17.97
42727;BME280;28372;56.832;60.658;2023-03-16T09:57:33;98592.88;;;17.10;17.78
42727;BME280;28372;56.832;60.658;2023-03-16T10:00:23;98601.91;;;17.00;18.34
42727;BME280;28372;56.832;60.658;2023-03-16T10:05:29;98599.16;;;16.78;18.33
42727;BME280;28372;56.832;60.658;2023-03-16T10:08:09;98597.63;;;16.67;17.72
42727;BME280;28372;56.832;60.658;2023-03-16T10:10:45;98594.13;;;16.63;17.81
42727;BME280;28372;56.832;60.658;2023-03-16T10:15:51;98589.84;;;16.47;18.17
42727;BME280;28372;56.832;60.658;2023-03-16T10:18:23;98586.34;;;16.25;18.19
42727;BME280;28372;56.832;60.658;2023-03-16T10:20:52;98582.84;;;16.39;19.10
42727;BME280;28372;56.832;60.658;2023-03-16T10:23:22;98585.56;;;16.42;18.90
42727;BME280;28372;56.832;60.658;2023-03-16T10:25:53;98578.16;;;16.39;19.07
42727;BME280;28372;56.832;60.658;2023-03-16T10:30:50;98578.94;;;16.22;19.35
42727;BME280;28372;56.832;60.658;2023-03-16T10:33:20;98576.22;;;16.11;19.66
42727;BME280;28372;56.832;60.658;2023-03-16T10:35:51;98583.97;;;16.02;19.63
42727;BME280;28372;56.832;60.658;2023-03-16T10:41:19;98577.75;;;16.16;20.19
42727;BME280;28372;56.832;60.658;2023-03-16T10:43:58;98584.38;;;16.18;20.04
42727;BME280;28372;56.832;60.658;2023-03-16T10:49:35;98587.13;;;16.04;20.18
42727;BME280;28372;56.832;60.658;2023-03-16T10:54:39;98586.72;;;16.02;19.76
42727;BME280;28372;56.832;60.658;2023-03-16T10:57:18;98582.84;;;15.99;20.12
42727;BME280;28372;56.832;60.658;2023-03-16T10:59:48;98588.69;;;16.01;19.96
42727;BME280;28372;56.832;60.658;2023-03-16T11:02:17;98590.22;;;15.99;19.63
42727;BME280;28372;56.832;60.658;2023-03-16T11:04:46;98588.69;;;15.98;20.22
42727;BME280;28372;56.832;60.658;2023-03-16T11:07:15;98585.94;;;15.94;19.69
42727;BME280;28372;56.832;60.658;2023-03-16T11:09:43;98598.03;;;15.97;20.60
42727;BME280;28372;56.832;60.658;2023-03-16T11:12:18;98592.16;;;15.87;19.92
42727;BME280;28372;56.832;60.658;2023-03-16T11:14:47;98591.34;;;15.76;20.21
42727;BME280;28372;56.832;60.658;2023-03-16T11:17:20;98578.06;;;15.67;20.37
42727;BME280;28372;56.832;60.658;2023-03-16T11:19:58;98584.28;;;15.61;20.57
42727;BME280;28372;56.832;60.658;2023-03-16T11:22:38;98590.09;;;15.48;21.02
42727;BME280;28372;56.832;60.658;2023-03-16T11:30:08;98590.00;;;15.23;21.34
42727;BME280;28372;56.832;60.658;2023-03-16T11:32:42;98592.72;;;15.23;21.63
42727;BME280;28372;56.832;60.658;2023-03-16T11:35:12;98581.78;;;15.16;21.56
42727;BME280;28372;56.832;60.658;2023-03-16T11:37:45;98589.88;;;14.94;21.79
42727;BME280;28372;56.832;60.658;2023-03-16T11:53:26;98573.28;;;14.10;22.79
42727;BME280;28372;56.832;60.658;2023-03-16T12:09:18;98579.03;;;13.60;23.02
42727;BME280;28372;56.832;60.658;2023-03-16T12:14:31;98571.88;;;13.44;23.75
42727;BME280;28372;56.832;60.658;2023-03-16T12:17:14;98570.63;;;13.38;23.77
42727;BME280;28372;56.832;60.658;2023-03-16T12:19:51;98568.28;;;13.36;23.77
42727;BME280;28372;56.832;60.658;2023-03-16T12:22:32;98565.03;;;13.24;24.16
42727;BME280;28372;56.832;60.658;2023-03-16T12:25:01;98565.38;;;13.22;24.21
42727;BME280;28372;56.832;60.658;2023-03-16T12:27:30;98566.81;;;13.12;24.61
42727;BME280;28372;56.832;60.658;2023-03-16T12:33:23;98567.06;;;13.00;24.88
42727;BME280;28372;56.832;60.658;2023-03-16T12:36:28;98568.16;;;12.95;24.94
42727;BME280;28372;56.832;60.658;2023-03-16T12:41:24;98561.38;;;12.82;25.46
42727;BME280;28372;56.832;60.658;2023-03-16T12:43:58;98567.81;;;12.70;25.71
42727;BME280;28372;56.832;60.658;2023-03-16T12:48:55;98561.56;;;12.66;25.91
42727;BME280;28372;56.832;60.658;2023-03-16T12:51:40;98564.28;;;12.66;25.92
42727;BME280;28372;56.832;60.658;2023-03-16T12:54:21;98563.44;;;12.62;25.71
42727;BME280;28372;56.832;60.658;2023-03-16T12:56:49;98559.06;;;12.54;26.15
42727;BME280;28372;56.832;60.658;2023-03-16T12:59:18;98557.38;;;12.45;26.47
42727;BME280;28372;56.832;60.658;2023-03-16T13:01:51;98560.44;;;12.40;26.85
42727;BME280;28372;56.832;60.658;2023-03-16T13:04:20;98563.50;;;12.39;26.71
42727;BME280;28372;56.832;60.658;2023-03-16T13:06:50;98558.69;;;12.28;26.55
42727;BME280;28372;56.832;60.658;2023-03-16T13:09:27;98553.22;;;12.25;26.54
42727;BME280;28372;56.832;60.658;2023-03-16T13:11:57;98551.28;;;12.25;26.43
42727;BME280;28372;56.832;60.658;2023-03-16T13:19:44;98558.56;;;12.21;25.90
42727;BME280;28372;56.832;60.658;2023-03-16T13:22:19;98559.31;;;12.18;25.72
42727;BME280;28372;56.832;60.658;2023-03-16T13:27:38;98558.78;;;11.89;24.76
42727;BME280;28372;56.832;60.658;2023-03-16T13:32:47;98564.44;;;11.80;24.67
42727;BME280;28372;56.832;60.658;2023-03-16T13:35:15;98559.28;;;11.72;24.37
42727;BME280;28372;56.832;60.658;2023-03-16T13:37:43;98556.94;;;11.70;24.94
42727;BME280;28372;56.832;60.658;2023-03-16T13:40:25;98555.28;;;11.65;24.62
42727;BME280;28372;56.832;60.658;2023-03-16T13:42:56;98551.78;;;11.65;24.59
42727;BME280;28372;56.832;60.658;2023-03-16T13:45:31;98561.50;;;11.66;24.55
42727;BME280;28372;56.832;60.658;2023-03-16T13:47:59;98561.50;;;11.66;24.43
42727;BME280;28372;56.832;60.658;2023-03-16T13:50:34;98549.03;;;11.61;24.67
42727;BME280;28372;56.832;60.658;2023-03-16T13:53:03;98563.22;;;11.55;24.48
42727;BME280;28372;56.832;60.658;2023-03-16T13:55:31;98558.00;;;11.46;24.55
42727;BME280;28372;56.832;60.658;2023-03-16T13:57:59;98559.22;;;11.48;24.51
42727;BME280;28372;56.832;60.658;2023-03-16T14:00:31;98556.09;;;11.46;24.88
42727;BME280;28372;56.832;60.658;2023-03-16T14:03:02;98557.59;;;11.44;24.46
42727;BME280;28372;56.832;60.658;2023-03-16T14:05:36;98562.66;;;11.45;24.96
42727;BME280;28372;56.832;60.658;2023-03-16T14:08:11;98565.72;;;11.44;24.87
42727;BME280;28372;56.832;60.658;2023-03-16T14:10:41;98561.44;;;11.43;24.58
42727;BME280;28372;56.832;60.658;2023-03-16T14:16:00;98565.63;;;11.40;24.96
42727;BME280;28372;56.832;60.658;2023-03-16T14:18:31;98565.50;;;11.33;24.65
42727;BME280;28372;56.832;60.658;2023-03-16T14:21:03;98557.69;;;11.28;24.64
42727;BME280;28372;56.832;60.658;2023-03-16T14:23:32;98569.94;;;11.22;24.75
42727;BME280;28372;56.832;60.658;2023-03-16T14:26:05;98567.09;;;11.14;24.56
42727;BME280;28372;56.832;60.658;2023-03-16T14:28:38;98567.31;;;11.06;24.60
42727;BME280;28372;56.832;60.658;2023-03-16T14:31:10;98573.69;;;10.97;24.74
42727;BME280;28372;56.832;60.658;2023-03-16T14:33:38;98575.75;;;10.85;25.18
42727;BME280;28372;56.832;60.658;2023-03-16T14:36:11;98570.25;;;10.81;24.79
42727;BME280;28372;56.832;60.658;2023-03-16T14:38:40;98559.38;;;10.77;24.79
42727;BME280;28372;56.832;60.658;2023-03-16T14:41:17;98561.06;;;10.66;24.73
42727;BME280;28372;56.832;60.658;2023-03-16T14:43:48;98565.97;;;10.60;25.21
42727;BME280;28372;56.832;60.658;2023-03-16T14:46:21;98561.31;;;10.61;25.27
42727;BME280;28372;56.832;60.658;2023-03-16T14:48:58;98557.84;;;10.60;24.98
42727;BME280;28372;56.832;60.658;2023-03-16T14:51:26;98556.25;;;10.59;25.74
42727;BME280;28372;56.832;60.658;2023-03-16T14:53:55;98562.44;;;10.60;25.31
42727;BME280;28372;56.832;60.658;2023-03-16T14:56:23;98556.63;;;10.58;25.46
42727;BME280;28372;56.832;60.658;2023-03-16T14:58:58;98555.13;;;10.60;25.67